Airfield :
LOGIN :

Register | Disclaimer

   EN    FR    IT 

 










Legend :    VFR   Marginal VFR   IFR   Intensive IFR   Very Intensive IFR
Visi :
Ceiling :
>= 8 km
>= 3000ft
5 to 8 km
1000 to 3000 ft
1500m to 5 km
500 to 1000 ft
800 to 1500m
200 to 500 ft
< 800m
< 200 ft
Symbols :   Thunderstorms  Fog  Heavy snow  Heavy precipitations  Wind > 20 kt
SIGMETs :     Misc.  Thunderstorms  Icing  Turbulence  Mountain Waves  Volcanic Ashes







- Airport Elevation : 195 ft
- Download approach charts


LFMY - Salon de Provence

CURRENT METAR :
  • 222330Z AUTO 07003KT 9999 // NSC 21/19 Q1018

EXPIRED METARs :
  • 222300Z AUTO 05004KT 9999 // NSC 21/20 Q1018
  • 222230Z AUTO 13003KT 9000 // NSC 22/20 Q1018
  • 222200Z AUTO VRB01KT 9999 // NSC 23/21 Q1019
  • 222130Z AUTO 00000KT 9999 // NSC 23/21 Q1019
  • 222100Z AUTO 20003KT 9999 // NSC 23/21 Q1018

TAF TAF LFMY
Valid from the 22 at 15:00 until the 23 at 15:00 UTC


221400Z 2215/2315 20010KT CAVOK
BECMG 2219/2221 VRB02KT
BECMG 2309/2311 26010KT
No reported NOTAMs for that airfield.



MET'MAP, your aeronautical weather chart ! - Copyright ORBIFLY December 2007 - Disclaimer

ORBIFLY MET'MAP TEAM :

Programming & Development : Alexandra Zaïnal
Concept & Development : Baudouin d'Aumeries
Co-Development & Prog : Marc-Olivier Méhu
Technical & hardware support : Manuel Goepfert

Contact : metmap@orbifly.com




SOURCES & CREDITS :

   NOAA